Allensburg, Ohio
Current Conditions -  °F | °C
As of 10:54 PM on Saturday 22 Nov 2014 (Local Time) from KILN Reporting Station
Overcast Overcast  
Wind Chill:   Ceiling: 7000
Heat Index:   Visibility: 10mi
Dew Point:   Wind: 9mph
Humidity: 56%   Direction: 190°S
Pressure: 30.08"   Gusts: NA
Location:  39.1546°N, 83.569°W
Report Text: KILN 230354Z AUTO 19008KT 10SM SCT055 BKN070 OVC110 08/00 A3008 RMK AO2 SLP200 T00830000
Loading
Personal Weather Stations






























Interactive Weather Map New forecast layout! Learn more

10-Day Weather Forecast

Advertisements
Track Severe Weather on mobile